Time;durP1;ratioP1;P1;durP2;ratioP2;P2;SDS_P1;SDS_P2;PMS_P1;PMS_P2;Temp;Humidity;BMP_temperature;BMP_pressure;BME280_temperature;BME280_humidity;BME280_pressure;Samples;Min_cycle;Max_cycle;Signal;HPM_P1;HPM_P2
2022/12/05 00:01:34;;;;;;;34.76;22.50;;;;;;;;;;5241871;28;20025;-71
2022/12/05 00:04:06;;;;;;;37.72;24.85;;;;;;;;;;5242552;28;20017;-71
2022/12/05 00:06:38;;;;;;;38.65;23.92;;;;;;;;;;5242526;28;20556;-71
2022/12/05 00:09:10;;;;;;;40.38;24.05;;;;;;;;;;5241786;28;20071;-71
2022/12/05 00:11:42;;;;;;;34.78;24.33;;;;;;;;;;5242273;28;20467;-71
2022/12/05 00:14:13;;;;;;;34.95;23.60;;;;;;;;;;5242749;28;20028;-71
2022/12/05 00:16:44;;;;;;;37.45;23.30;;;;;;;;;;5241235;28;20109;-71
2022/12/05 00:19:15;;;;;;;49.55;28.50;;;;;;;;;;5242758;28;20564;-70
2022/12/05 00:21:46;;;;;;;45.22;26.35;;;;;;;;;;5241967;28;20014;-72
2022/12/05 00:24:18;;;;;;;40.83;25.02;;;;;;;;;;5242079;28;20022;-71
2022/12/05 00:26:50;;;;;;;43.67;26.38;;;;;;;;;;5241816;28;20080;-71
2022/12/05 00:29:21;;;;;;;43.25;27.73;;;;;;;;;;5241267;28;20485;-71
2022/12/05 00:31:52;;;;;;;41.56;25.66;;;;;;;;;;5242013;28;20469;-72
2022/12/05 00:34:23;;;;;;;47.20;26.56;;;;;;;;;;5241941;28;20499;-71
2022/12/05 00:36:54;;;;;;;41.83;25.88;;;;;;;;;;5240911;28;20519;-71
2022/12/05 00:39:25;;;;;;;36.53;23.75;;;;;;;;;;5242106;28;20121;-72
2022/12/05 00:41:57;;;;;;;42.75;26.38;;;;;;;;;;5241796;28;20030;-72
2022/12/05 00:44:28;;;;;;;41.88;26.17;;;;;;;;;;5241114;28;20075;-72
2022/12/05 00:46:59;;;;;;;40.10;25.78;;;;;;;;;;5241605;28;20033;-71
2022/12/05 00:49:30;;;;;;;41.20;26.08;;;;;;;;;;5240483;28;20091;-72
2022/12/05 00:52:01;;;;;;;45.83;27.65;;;;;;;;;;5240996;28;20364;-71
2022/12/05 00:54:32;;;;;;;39.38;25.98;;;;;;;;;;5241675;28;20024;-71
2022/12/05 00:57:04;;;;;;;37.08;25.70;;;;;;;;;;5241694;28;20017;-71
2022/12/05 00:59:35;;;;;;;37.88;24.35;;;;;;;;;;5240814;28;20028;-71
2022/12/05 01:02:06;;;;;;;47.90;29.56;;;;;;;;;;5241389;28;20040;-71
2022/12/05 01:04:37;;;;;;;45.84;29.78;;;;;;;;;;5240752;28;20017;-71
2022/12/05 01:07:08;;;;;;;42.85;28.98;;;;;;;;;;5241384;28;20029;-71
2022/12/05 01:09:40;;;;;;;39.35;25.95;;;;;;;;;;5241002;28;20079;-71
2022/12/05 01:12:11;;;;;;;43.97;28.17;;;;;;;;;;5240891;28;20041;-71
2022/12/05 01:14:42;;;;;;;44.92;29.20;;;;;;;;;;5240889;28;20028;-71
2022/12/05 01:17:13;;;;;;;43.95;27.35;;;;;;;;;;5241711;28;20021;-71
2022/12/05 01:19:44;;;;;;;41.33;26.75;;;;;;;;;;5240094;28;20021;-72
2022/12/05 01:22:15;;;;;;;45.56;28.10;;;;;;;;;;5241401;28;20108;-72
2022/12/05 01:24:46;;;;;;;42.03;26.65;;;;;;;;;;5240905;28;20013;-72
2022/12/05 01:27:18;;;;;;;41.94;26.62;;;;;;;;;;5240354;28;20060;-71
2022/12/05 01:29:49;;;;;;;41.67;27.63;;;;;;;;;;5240520;28;20026;-72
2022/12/05 01:32:20;;;;;;;41.65;27.77;;;;;;;;;;5240962;28;20366;-72
2022/12/05 01:34:51;;;;;;;41.33;25.98;;;;;;;;;;5239773;28;20069;-71
2022/12/05 01:37:22;;;;;;;42.63;26.33;;;;;;;;;;5240776;28;20080;-72
2022/12/05 01:39:54;;;;;;;43.80;27.40;;;;;;;;;;5239955;28;20021;-71
2022/12/05 01:42:25;;;;;;;42.17;28.27;;;;;;;;;;5240656;28;20040;-72
2022/12/05 01:44:58;;;;;;;44.97;28.40;;;;;;;;;;5240736;28;20013;-71
2022/12/05 01:47:31;;;;;;;44.05;28.77;;;;;;;;;;5239778;28;20116;-71
2022/12/05 01:50:03;;;;;;;40.50;27.30;;;;;;;;;;5240458;28;20025;-71
2022/12/05 01:52:35;;;;;;;41.83;26.45;;;;;;;;;;5240417;28;20037;-72
2022/12/05 01:55:09;;;;;;;39.50;26.25;;;;;;;;;;5239912;28;20079;-72
2022/12/05 01:57:40;;;;;;;39.55;26.60;;;;;;;;;;5240168;28;20029;-71
2022/12/05 02:00:13;;;;;;;41.05;27.50;;;;;;;;;;5240341;28;20083;-72
2022/12/05 02:02:53;;;;;;;42.05;28.35;;;;;;;;;;5238894;28;20029;-72
2022/12/05 02:05:28;;;;;;;39.20;26.60;;;;;;;;;;5240544;28;20365;-71
2022/12/05 02:08:01;;;;;;;44.45;28.85;;;;;;;;;;5239468;28;20037;-71
2022/12/05 02:10:34;;;;;;;41.25;27.20;;;;;;;;;;5240308;28;20021;-72
2022/12/05 02:13:24;;;;;;;45.30;29.27;;;;;;;;;;5239922;28;20151;-71
2022/12/05 02:15:59;;;;;;;39.85;27.50;;;;;;;;;;5239514;28;20522;-71
2022/12/05 02:18:49;;;;;;;40.45;25.98;;;;;;;;;;5240026;28;20112;-71
2022/12/05 02:21:31;;;;;;;36.60;25.17;;;;;;;;;;5240148;28;20516;-71
2022/12/05 02:24:08;;;;;;;39.55;25.63;;;;;;;;;;5239520;28;20025;-71
2022/12/05 02:27:04;;;;;;;39.88;26.85;;;;;;;;;;5239744;28;20030;-72
2022/12/05 02:29:46;;;;;;;37.38;24.48;;;;;;;;;;5239328;28;20061;-72
2022/12/05 02:32:42;;;;;;;36.78;24.15;;;;;;;;;;5240423;28;20075;-72
2022/12/05 02:35:32;;;;;;;39.30;26.70;;;;;;;;;;5239779;28;20079;-72
2022/12/05 02:38:08;;;;;;;42.60;27.80;;;;;;;;;;5238806;28;20393;-72
2022/12/05 02:40:49;;;;;;;39.90;25.85;;;;;;;;;;5239452;28;20040;-72
2022/12/05 02:43:26;;;;;;;40.30;26.40;;;;;;;;;;5239063;28;20010;-72
2022/12/05 02:45:59;;;;;;;37.75;25.30;;;;;;;;;;5239420;28;20098;-72
2022/12/05 02:48:32;;;;;;;44.83;26.75;;;;;;;;;;5239377;28;20017;-72
2022/12/05 02:51:04;;;;;;;41.10;26.50;;;;;;;;;;5239134;28;20028;-72
2022/12/05 02:53:36;;;;;;;42.20;28.42;;;;;;;;;;5239934;28;20017;-72
2022/12/05 02:56:08;;;;;;;42.40;26.13;;;;;;;;;;5239887;28;20097;-72
2022/12/05 02:58:52;;;;;;;38.63;24.10;;;;;;;;;;5238555;28;20029;-72
2022/12/05 03:01:26;;;;;;;41.05;27.42;;;;;;;;;;5239827;28;20022;-72
2022/12/05 03:03:58;;;;;;;45.42;27.27;;;;;;;;;;5239034;28;20473;-72
2022/12/05 03:06:31;;;;;;;42.83;27.48;;;;;;;;;;5239607;28;20028;-72
2022/12/05 03:09:13;;;;;;;44.00;27.45;;;;;;;;;;5239531;28;20026;-72
2022/12/05 03:11:46;;;;;;;40.33;26.25;;;;;;;;;;5240123;28;20049;-72
2022/12/05 03:14:20;;;;;;;37.88;24.63;;;;;;;;;;5243848;28;20026;-72
2022/12/05 03:16:53;;;;;;;39.00;25.17;;;;;;;;;;5243395;28;20021;-72
2022/12/05 03:19:31;;;;;;;45.08;28.38;;;;;;;;;;5242668;28;20091;-73
2022/12/05 03:22:07;;;;;;;42.50;27.33;;;;;;;;;;5243545;28;20017;-73
2022/12/05 03:24:39;;;;;;;40.90;25.77;;;;;;;;;;5243306;28;20021;-72
2022/12/05 03:27:19;;;;;;;39.08;25.10;;;;;;;;;;5242960;28;20030;-73
2022/12/05 03:30:00;;;;;;;38.50;25.70;;;;;;;;;;5243102;28;20049;-72
2022/12/05 03:32:35;;;;;;;42.92;27.67;;;;;;;;;;5242572;28;20071;-72
2022/12/05 03:35:07;;;;;;;36.40;24.27;;;;;;;;;;5243078;28;20405;-72
2022/12/05 03:37:41;;;;;;;37.28;23.73;;;;;;;;;;5242971;28;20034;-72
2022/12/05 03:40:25;;;;;;;39.00;25.25;;;;;;;;;;5242523;28;20133;-72
2022/12/05 03:43:13;;;;;;;37.90;25.17;;;;;;;;;;5243104;28;20033;-72
2022/12/05 03:45:47;;;;;;;37.85;24.65;;;;;;;;;;5242715;28;20542;-72
2022/12/05 03:48:21;;;;;;;42.25;26.00;;;;;;;;;;5242482;28;20465;-72
2022/12/05 03:50:53;;;;;;;38.95;24.38;;;;;;;;;;5242725;28;20036;-72
2022/12/05 03:53:30;;;;;;;40.70;26.50;;;;;;;;;;5242111;28;20025;-72
2022/12/05 03:56:06;;;;;;;38.38;25.00;;;;;;;;;;5242976;28;20021;-71
2022/12/05 03:58:40;;;;;;;35.80;24.40;;;;;;;;;;5242758;28;20101;-71
2022/12/05 04:01:12;;;;;;;39.22;24.50;;;;;;;;;;5242116;28;20385;-71
2022/12/05 04:03:50;;;;;;;39.08;24.88;;;;;;;;;;5242445;28;20021;-71
2022/12/05 04:06:25;;;;;;;41.97;25.15;;;;;;;;;;5242576;28;20524;-71
2022/12/05 04:08:59;;;;;;;39.17;24.98;;;;;;;;;;5241775;28;20392;-71
2022/12/05 04:11:32;;;;;;;40.33;25.23;;;;;;;;;;5242401;28;20100;-73
2022/12/05 04:14:12;;;;;;;44.15;26.55;;;;;;;;;;5242266;28;20392;-72
2022/12/05 04:17:02;;;;;;;38.40;25.15;;;;;;;;;;5242176;28;20469;-72
2022/12/05 04:22:26;;;;;;;41.05;25.67;;;;;;;;;;5241672;28;20021;-73
2022/12/05 04:27:51;;;;;;;38.47;25.73;;;;;;;;;;5241931;28;20041;-72
2022/12/05 04:30:24;;;;;;;37.72;25.27;;;;;;;;;;5241276;28;20025;-72
2022/12/05 04:32:59;;;;;;;38.38;25.27;;;;;;;;;;5241991;28;20014;-72
2022/12/05 04:35:34;;;;;;;38.08;25.25;;;;;;;;;;5241185;28;20049;-72
2022/12/05 04:38:19;;;;;;;34.72;22.98;;;;;;;;;;5241895;28;20080;-72
2022/12/05 04:40:57;;;;;;;37.88;24.38;;;;;;;;;;5241480;28;20025;-72
2022/12/05 04:43:29;;;;;;;37.47;24.75;;;;;;;;;;5241281;28;20100;-72
2022/12/05 04:46:03;;;;;;;34.17;23.55;;;;;;;;;;5241835;28;20406;-72
2022/12/05 04:48:36;;;;;;;34.70;23.35;;;;;;;;;;5241698;28;20018;-72
2022/12/05 04:51:12;;;;;;;40.92;25.58;;;;;;;;;;5240707;28;20025;-71
2022/12/05 04:53:44;;;;;;;40.75;25.48;;;;;;;;;;5241252;28;20461;-70
2022/12/05 04:56:17;;;;;;;38.15;24.95;;;;;;;;;;5241800;28;20025;-70
2022/12/05 04:58:48;;;;;;;37.30;25.20;;;;;;;;;;5240401;28;20021;-71
2022/12/05 05:01:27;;;;;;;37.22;24.65;;;;;;;;;;5241743;28;20075;-71
2022/12/05 05:04:19;;;;;;;37.22;23.92;;;;;;;;;;5240649;28;20021;-71
2022/12/05 05:06:51;;;;;;;39.08;25.55;;;;;;;;;;5240962;28;20055;-70
2022/12/05 05:09:22;;;;;;;38.22;24.85;;;;;;;;;;5241434;28;20092;-71
2022/12/05 05:11:53;;;;;;;41.97;25.67;;;;;;;;;;5240326;28;20061;-72
2022/12/05 05:14:24;;;;;;;38.33;24.98;;;;;;;;;;5241453;28;20036;-71
2022/12/05 05:16:55;;;;;;;36.10;24.10;;;;;;;;;;5241315;28;20021;-71
2022/12/05 05:19:27;;;;;;;36.00;24.10;;;;;;;;;;5240453;28;20014;-72
2022/12/05 05:21:59;;;;;;;39.60;23.67;;;;;;;;;;5241146;28;20523;-72
2022/12/05 05:24:30;;;;;;;42.55;26.45;;;;;;;;;;5240422;28;20380;-72
2022/12/05 05:27:01;;;;;;;39.78;25.44;;;;;;;;;;5240977;28;20091;-72
2022/12/05 05:29:32;;;;;;;35.70;24.38;;;;;;;;;;5241054;28;20032;-72
2022/12/05 05:32:03;;;;;;;36.35;24.65;;;;;;;;;;5240134;28;20030;-72
2022/12/05 05:34:35;;;;;;;37.58;23.73;;;;;;;;;;5240349;28;20022;-72
2022/12/05 05:37:06;;;;;;;36.45;23.38;;;;;;;;;;5240770;28;20072;-72
2022/12/05 05:39:37;;;;;;;35.13;22.83;;;;;;;;;;5239907;28;20026;-72
2022/12/05 05:42:08;;;;;;;33.33;23.02;;;;;;;;;;5240903;28;20432;-73
2022/12/05 05:44:39;;;;;;;33.90;22.56;;;;;;;;;;5240507;28;20017;-73
2022/12/05 05:47:10;;;;;;;32.58;21.58;;;;;;;;;;5240198;28;20431;-72
2022/12/05 05:49:42;;;;;;;36.02;22.38;;;;;;;;;;5240284;28;20028;-72
2022/12/05 05:52:13;;;;;;;31.70;22.00;;;;;;;;;;5240984;28;20075;-73
2022/12/05 05:54:44;;;;;;;32.80;22.44;;;;;;;;;;5239628;28;20025;-72
2022/12/05 05:57:15;;;;;;;33.42;22.36;;;;;;;;;;5240816;28;20067;-72
2022/12/05 05:59:46;;;;;;;38.70;24.23;;;;;;;;;;5239353;28;20029;-72
2022/12/05 06:02:17;;;;;;;34.55;23.65;;;;;;;;;;5240749;28;20018;-72
2022/12/05 06:04:49;;;;;;;32.78;21.92;;;;;;;;;;5240274;28;20017;-72
2022/12/05 06:07:20;;;;;;;35.80;22.20;;;;;;;;;;5239777;28;20029;-72
2022/12/05 06:09:51;;;;;;;31.88;21.38;;;;;;;;;;5240026;28;20025;-72
2022/12/05 06:12:22;;;;;;;32.26;22.88;;;;;;;;;;5240170;28;20167;-72
2022/12/05 06:14:53;;;;;;;30.80;21.02;;;;;;;;;;5239643;28;20009;-72
2022/12/05 06:17:25;;;;;;;35.80;22.40;;;;;;;;;;5240078;28;20022;-72
2022/12/05 06:19:56;;;;;;;33.47;22.00;;;;;;;;;;5240174;28;20477;-72
2022/12/05 06:22:28;;;;;;;35.58;22.25;;;;;;;;;;5239355;28;20021;-72
2022/12/05 06:24:59;;;;;;;33.28;22.52;;;;;;;;;;5240090;28;20128;-72
2022/12/05 06:27:31;;;;;;;31.24;20.82;;;;;;;;;;5239844;28;20196;-73
2022/12/05 06:30:02;;;;;;;30.52;19.88;;;;;;;;;;5239315;28;20025;-73
2022/12/05 06:32:33;;;;;;;31.15;21.63;;;;;;;;;;5240006;28;20029;-72
2022/12/05 06:35:13;;;;;;;33.08;21.25;;;;;;;;;;5238990;28;20513;-73
2022/12/05 06:37:45;;;;;;;30.60;21.08;;;;;;;;;;5239274;28;20121;-73
2022/12/05 06:40:16;;;;;;;30.65;20.05;;;;;;;;;;5240408;28;20020;-72
2022/12/05 06:42:47;;;;;;;35.35;22.90;;;;;;;;;;5238780;28;20084;-72
2022/12/05 06:45:18;;;;;;;31.13;21.73;;;;;;;;;;5241054;28;20022;-71
2022/12/05 06:47:50;;;;;;;30.67;21.67;;;;;;;;;;5243551;28;20029;-71
2022/12/05 06:50:21;;;;;;;31.17;21.30;;;;;;;;;;5243453;28;20022;-72
2022/12/05 06:52:52;;;;;;;28.00;20.10;;;;;;;;;;5243890;28;20032;-71
2022/12/05 06:55:23;;;;;;;28.13;20.25;;;;;;;;;;5244027;28;20018;-72
2022/12/05 06:57:54;;;;;;;29.26;20.44;;;;;;;;;;5243054;28;20028;-71
2022/12/05 07:03:15;;;;;;;26.40;18.75;;;;;;;;;;5243687;28;20029;-72
2022/12/05 07:05:47;;;;;;;27.60;19.23;;;;;;;;;;5243445;28;20014;-71
2022/12/05 07:08:18;;;;;;;24.42;17.73;;;;;;;;;;5244031;28;20026;-71
2022/12/05 07:10:50;;;;;;;27.08;18.64;;;;;;;;;;5242434;28;20032;-70
2022/12/05 07:13:21;;;;;;;27.15;19.77;;;;;;;;;;5243823;28;20072;-71
2022/12/05 07:15:52;;;;;;;28.35;19.35;;;;;;;;;;5243944;28;20034;-71
2022/12/05 07:18:23;;;;;;;30.15;19.58;;;;;;;;;;5242289;28;20116;-70
2022/12/05 07:20:58;;;;;;;30.40;21.73;;;;;;;;;;5243138;28;20031;-70
2022/12/05 07:23:30;;;;;;;29.10;20.65;;;;;;;;;;5243351;28;20075;-71
2022/12/05 07:26:05;;;;;;;28.30;20.17;;;;;;;;;;5242556;28;20025;-71
2022/12/05 07:28:36;;;;;;;25.55;17.40;;;;;;;;;;5243397;28;20032;-72
2022/12/05 07:31:09;;;;;;;26.05;18.63;;;;;;;;;;5242277;28;20025;-72
2022/12/05 07:33:40;;;;;;;25.98;18.25;;;;;;;;;;5234182;28;20030;-70
2022/12/05 07:36:13;;;;;;;24.75;17.90;;;;;;;;;;5221666;28;20135;-70
2022/12/05 07:38:44;;;;;;;25.52;18.42;;;;;;;;;;5219564;28;20053;-71
2022/12/05 07:41:19;;;;;;;25.52;17.48;;;;;;;;;;5222420;28;20030;-72
2022/12/05 07:43:51;;;;;;;23.48;16.75;;;;;;;;;;5221334;28;20018;-71
2022/12/05 07:46:23;;;;;;;23.95;17.00;;;;;;;;;;5220587;28;20087;-71
2022/12/05 07:48:54;;;;;;;25.58;17.80;;;;;;;;;;5221636;28;20030;-71
2022/12/05 07:51:25;;;;;;;25.77;18.48;;;;;;;;;;5222271;28;20523;-71
2022/12/05 07:53:57;;;;;;;26.30;17.52;;;;;;;;;;5221193;28;20018;-71
2022/12/05 07:56:28;;;;;;;23.83;17.40;;;;;;;;;;5221858;28;20064;-69
2022/12/05 07:58:59;;;;;;;23.64;17.84;;;;;;;;;;5221290;28;20469;-71
2022/12/05 08:01:31;;;;;;;23.17;17.02;;;;;;;;;;5221313;28;20466;-71
2022/12/05 08:04:02;;;;;;;24.48;17.52;;;;;;;;;;5219270;28;20026;-72
2022/12/05 08:06:33;;;;;;;26.50;18.02;;;;;;;;;;5224641;28;20041;-71
2022/12/05 08:09:04;;;;;;;24.48;17.67;;;;;;;;;;5219535;28;20018;-72
2022/12/05 08:11:35;;;;;;;26.73;18.25;;;;;;;;;;5226418;28;20511;-71
2022/12/05 08:14:08;;;;;;;25.05;17.92;;;;;;;;;;5219766;28;20397;-72
2022/12/05 08:16:39;;;;;;;25.75;18.67;;;;;;;;;;5220352;28;20477;-71
2022/12/05 08:19:12;;;;;;;23.02;17.13;;;;;;;;;;5221266;28;20093;-71
2022/12/05 08:21:43;;;;;;;25.25;17.58;;;;;;;;;;5220186;28;20030;-71
2022/12/05 08:24:14;;;;;;;23.98;17.13;;;;;;;;;;5222099;28;20020;-72
2022/12/05 08:26:45;;;;;;;22.52;16.98;;;;;;;;;;5220908;28;20041;-72
2022/12/05 08:29:19;;;;;;;24.63;16.88;;;;;;;;;;5220281;28;20072;-72
2022/12/05 08:31:50;;;;;;;21.70;16.35;;;;;;;;;;5220228;28;20037;-72
2022/12/05 08:34:21;;;;;;;23.00;16.75;;;;;;;;;;5219870;28;20056;-71
2022/12/05 08:36:53;;;;;;;25.35;18.25;;;;;;;;;;5220250;28;20076;-69
2022/12/05 08:39:25;;;;;;;24.13;17.35;;;;;;;;;;5221289;28;20050;-72
2022/12/05 08:41:56;;;;;;;22.38;16.00;;;;;;;;;;5220425;28;20045;-72
2022/12/05 08:44:27;;;;;;;20.40;16.08;;;;;;;;;;5220702;28;20034;-70
2022/12/05 08:46:58;;;;;;;21.42;15.82;;;;;;;;;;5220738;28;20041;-71
2022/12/05 08:49:30;;;;;;;22.55;16.65;;;;;;;;;;5220142;28;20053;-72
2022/12/05 08:52:01;;;;;;;23.50;17.45;;;;;;;;;;5220960;28;20437;-71
2022/12/05 08:54:32;;;;;;;23.82;16.58;;;;;;;;;;5220910;28;20030;-72
2022/12/05 08:57:03;;;;;;;23.17;16.77;;;;;;;;;;5219548;28;20109;-71
2022/12/05 08:59:34;;;;;;;22.06;16.44;;;;;;;;;;5220692;28;20057;-72
2022/12/05 09:02:07;;;;;;;25.10;18.08;;;;;;;;;;5220936;28;20113;-72
2022/12/05 09:04:38;;;;;;;21.98;16.67;;;;;;;;;;5219897;28;20029;-71
2022/12/05 09:07:09;;;;;;;22.70;16.63;;;;;;;;;;5220849;28;20038;-72
2022/12/05 09:09:40;;;;;;;22.20;16.25;;;;;;;;;;5218743;28;20018;-72
2022/12/05 09:12:12;;;;;;;22.94;15.98;;;;;;;;;;5221009;28;20049;-75
2022/12/05 09:14:43;;;;;;;21.52;15.90;;;;;;;;;;5220778;28;20409;-72
2022/12/05 09:17:15;;;;;;;22.44;16.26;;;;;;;;;;5220803;28;20026;-72
2022/12/05 09:19:49;;;;;;;24.58;17.17;;;;;;;;;;5220263;28;20026;-72
2022/12/05 09:22:21;;;;;;;24.17;16.25;;;;;;;;;;5220387;28;20084;-72
2022/12/05 09:24:52;;;;;;;25.38;17.27;;;;;;;;;;5219702;28;20159;-72
2022/12/05 09:27:24;;;;;;;26.08;17.88;;;;;;;;;;5220069;28;20101;-73
2022/12/05 09:29:55;;;;;;;23.90;17.38;;;;;;;;;;5220164;28;20017;-72
2022/12/05 09:32:26;;;;;;;23.35;16.50;;;;;;;;;;5219431;28;20032;-72
2022/12/05 09:34:57;;;;;;;22.38;16.48;;;;;;;;;;5220252;28;20077;-73
2022/12/05 09:37:28;;;;;;;19.75;15.13;;;;;;;;;;5220213;28;20141;-72
2022/12/05 09:39:59;;;;;;;24.33;15.73;;;;;;;;;;5219460;28;20401;-72
2022/12/05 09:42:37;;;;;;;20.38;15.23;;;;;;;;;;5220015;28;20024;-71
2022/12/05 09:45:14;;;;;;;22.10;15.20;;;;;;;;;;5219247;28;20018;-73
2022/12/05 09:47:51;;;;;;;19.60;14.85;;;;;;;;;;5219499;28;20108;-71
2022/12/05 09:50:27;;;;;;;19.45;14.13;;;;;;;;;;5219964;28;20072;-72
2022/12/05 09:53:01;;;;;;;20.25;14.63;;;;;;;;;;5218780;28;20105;-72
2022/12/05 09:55:35;;;;;;;20.25;14.95;;;;;;;;;;5219712;28;20052;-71
2022/12/05 09:58:15;;;;;;;19.10;14.27;;;;;;;;;;5219944;28;20077;-71
2022/12/05 10:00:47;;;;;;;19.83;13.55;;;;;;;;;;5218900;28;20014;-71
2022/12/05 10:03:25;;;;;;;17.63;13.77;;;;;;;;;;5220006;28;20026;-71
2022/12/05 10:06:00;;;;;;;18.30;13.07;;;;;;;;;;5218871;28;20072;-71
2022/12/05 10:08:34;;;;;;;19.20;13.68;;;;;;;;;;5215812;28;20037;-72
2022/12/05 10:11:12;;;;;;;17.13;13.10;;;;;;;;;;5219451;28;20026;-73
2022/12/05 10:13:50;;;;;;;14.88;12.52;;;;;;;;;;5218633;28;20010;-73
2022/12/05 10:16:32;;;;;;;25.70;14.00;;;;;;;;;;5219524;28;20033;-73
2022/12/05 10:19:08;;;;;;;21.42;13.15;;;;;;;;;;5219186;28;20068;-73
2022/12/05 10:21:44;;;;;;;15.75;12.45;;;;;;;;;;5217922;28;20017;-73
2022/12/05 10:24:18;;;;;;;16.40;11.68;;;;;;;;;;5219503;28;20026;-72
2022/12/05 10:26:53;;;;;;;14.57;11.50;;;;;;;;;;5218865;28;20111;-72
2022/12/05 10:29:27;;;;;;;15.23;11.43;;;;;;;;;;5218945;28;20635;-72
2022/12/05 10:32:12;;;;;;;15.55;11.65;;;;;;;;;;5219398;28;20057;-72
2022/12/05 10:34:44;;;;;;;14.13;10.80;;;;;;;;;;5217376;28;20033;-73
2022/12/05 10:37:15;;;;;;;15.07;11.27;;;;;;;;;;5219203;28;20572;-73
2022/12/05 10:39:47;;;;;;;13.18;10.05;;;;;;;;;;5218691;28;20026;-73
2022/12/05 10:42:22;;;;;;;13.43;10.43;;;;;;;;;;5227485;28;20531;-73
2022/12/05 10:44:58;;;;;;;11.90;9.82;;;;;;;;;;5239369;28;20057;-72
2022/12/05 10:47:30;;;;;;;12.48;10.02;;;;;;;;;;5239166;28;20044;-72
2022/12/05 10:50:03;;;;;;;13.00;10.23;;;;;;;;;;5238715;28;20068;-73
2022/12/05 10:52:35;;;;;;;11.82;9.73;;;;;;;;;;5239137;28;20022;-73
2022/12/05 10:55:07;;;;;;;11.63;9.65;;;;;;;;;;5230602;28;20018;-73
2022/12/05 10:57:38;;;;;;;12.65;10.25;;;;;;;;;;5233119;28;20025;-73
2022/12/05 11:00:14;;;;;;;13.55;10.70;;;;;;;;;;5231888;28;20017;-72
2022/12/05 11:02:46;;;;;;;12.52;9.65;;;;;;;;;;5217837;28;20026;-72
2022/12/05 11:05:26;;;;;;;11.93;9.38;;;;;;;;;;5218916;28;20109;-72
2022/12/05 11:07:57;;;;;;;12.43;9.55;;;;;;;;;;5218697;28;20453;-71
2022/12/05 11:10:29;;;;;;;12.32;9.68;;;;;;;;;;5218115;28;20149;-72
2022/12/05 11:13:01;;;;;;;11.13;9.30;;;;;;;;;;5218659;28;20038;-73
2022/12/05 11:15:32;;;;;;;11.07;9.13;;;;;;;;;;5218979;28;20026;-72
2022/12/05 11:18:26;;;;;;;12.95;10.27;;;;;;;;;;5218127;28;20021;-71
2022/12/05 11:21:11;;;;;;;13.52;9.73;;;;;;;;;;5218796;28;20060;-73
2022/12/05 11:23:42;;;;;;;13.10;9.73;;;;;;;;;;5217856;28;20413;-72
2022/12/05 11:26:16;;;;;;;11.05;8.70;;;;;;;;;;5218646;28;20115;-72
2022/12/05 11:28:47;;;;;;;10.48;8.85;;;;;;;;;;5218053;28;20461;-72
2022/12/05 11:31:20;;;;;;;12.25;8.82;;;;;;;;;;5218023;28;20039;-71
2022/12/05 11:34:13;;;;;;;11.68;9.50;;;;;;;;;;5221758;28;20257;-72
2022/12/05 11:36:53;;;;;;;10.95;9.02;;;;;;;;;;5222045;28;20060;-72
2022/12/05 11:39:24;;;;;;;11.30;8.75;;;;;;;;;;5222047;28;20109;-72
2022/12/05 11:42:06;;;;;;;11.15;9.02;;;;;;;;;;5222140;28;20117;-71
2022/12/05 11:44:50;;;;;;;10.15;8.38;;;;;;;;;;5221525;28;20560;-71
2022/12/05 11:47:40;;;;;;;10.30;8.48;;;;;;;;;;5221781;28;20064;-71
2022/12/05 11:50:29;;;;;;;10.40;7.80;;;;;;;;;;5222442;28;20033;-71
2022/12/05 11:53:33;;;;;;;9.30;7.90;;;;;;;;;;5221258;28;20061;-70
2022/12/05 11:56:16;;;;;;;9.90;7.13;;;;;;;;;;5178231;28;20059;-71
2022/12/05 11:59:09;;;;;;;7.93;6.95;;;;;;;;;;5221110;28;20069;-71
2022/12/05 12:01:46;;;;;;;10.35;8.15;;;;;;;;;;5221041;28;20029;-71
2022/12/05 12:04:29;;;;;;;10.80;8.35;;;;;;;;;;5222026;28;20049;-72
2022/12/05 12:07:15;;;;;;;9.23;6.97;;;;;;;;;;5220999;28;20041;-71
2022/12/05 12:09:49;;;;;;;7.45;6.35;;;;;;;;;;5221211;28;20497;-71
2022/12/05 12:12:33;;;;;;;11.38;9.07;;;;;;;;;;5221833;28;20029;-71
2022/12/05 12:15:13;;;;;;;9.38;7.78;;;;;;;;;;5221637;28;20037;-72
2022/12/05 12:18:06;;;;;;;7.90;6.70;;;;;;;;;;5221068;28;20030;-70
2022/12/05 12:20:43;;;;;;;9.10;7.72;;;;;;;;;;5220787;28;20064;-70
2022/12/05 12:23:33;;;;;;;6.50;5.65;;;;;;;;;;5221358;28;20386;-71
2022/12/05 12:26:12;;;;;;;6.90;5.82;;;;;;;;;;5221561;28;20025;-70
2022/12/05 12:28:44;;;;;;;6.18;5.20;;;;;;;;;;5220094;28;20029;-72
2022/12/05 12:31:16;;;;;;;5.78;5.18;;;;;;;;;;5221581;28;20562;-72
2022/12/05 12:33:52;;;;;;;6.28;5.57;;;;;;;;;;5216423;28;20116;-71
2022/12/05 12:36:26;;;;;;;6.50;5.80;;;;;;;;;;5220302;28;20132;-72
2022/12/05 12:39:16;;;;;;;6.43;5.53;;;;;;;;;;5221230;28;20381;-72
2022/12/05 12:41:59;;;;;;;7.43;6.65;;;;;;;;;;5230309;28;20030;-72
2022/12/05 12:44:49;;;;;;;6.97;6.28;;;;;;;;;;5238263;28;20040;-72
2022/12/05 12:47:29;;;;;;;7.53;6.03;;;;;;;;;;5221034;28;20026;-70
2022/12/05 12:50:05;;;;;;;7.75;6.60;;;;;;;;;;5219985;28;20030;-71
2022/12/05 12:52:47;;;;;;;7.47;6.38;;;;;;;;;;5220303;28;20026;-71
2022/12/05 12:55:33;;;;;;;8.27;7.15;;;;;;;;;;5220265;28;20033;-71
2022/12/05 12:58:04;;;;;;;9.95;7.57;;;;;;;;;;5220688;28;20025;-71
2022/12/05 13:00:38;;;;;;;7.44;6.54;;;;;;;;;;5220693;28;20080;-71
2022/12/05 13:03:12;;;;;;;7.03;6.07;;;;;;;;;;5220233;28;20481;-72
2022/12/05 13:05:52;;;;;;;6.78;6.00;;;;;;;;;;5219711;28;20013;-72
2022/12/05 13:08:27;;;;;;;5.68;5.07;;;;;;;;;;5220938;28;20481;-73
2022/12/05 13:11:00;;;;;;;5.15;4.43;;;;;;;;;;5220008;28;20106;-71
2022/12/05 13:13:33;;;;;;;5.57;4.88;;;;;;;;;;5220608;28;20377;-72
2022/12/05 13:16:06;;;;;;;5.20;4.70;;;;;;;;;;5219164;28;20475;-72
2022/12/05 13:18:37;;;;;;;5.38;4.38;;;;;;;;;;5220173;28;20038;-72
2022/12/05 13:21:09;;;;;;;5.65;4.38;;;;;;;;;;5220644;28;20481;-71
2022/12/05 13:23:47;;;;;;;5.15;4.35;;;;;;;;;;5218867;28;20385;-72
2022/12/05 13:26:19;;;;;;;4.57;4.03;;;;;;;;;;5220543;28;20021;-73
2022/12/05 13:28:54;;;;;;;5.20;4.70;;;;;;;;;;5219640;28;20034;-71
2022/12/05 13:31:36;;;;;;;5.13;4.53;;;;;;;;;;5219587;28;20022;-73
2022/12/05 13:34:32;;;;;;;5.07;4.60;;;;;;;;;;5219731;28;20028;-71
2022/12/05 13:43:12;;;;;;;4.85;4.35;;;;;;;;;;5220121;28;20493;-74
2022/12/05 13:45:56;;;;;;;5.50;4.93;;;;;;;;;;5218816;28;20060;-72
2022/12/05 13:48:29;;;;;;;6.65;5.75;;;;;;;;;;5219863;28;20120;-73
2022/12/05 13:51:03;;;;;;;5.45;4.95;;;;;;;;;;5219006;28;20022;-72
2022/12/05 13:53:37;;;;;;;6.40;5.35;;;;;;;;;;5219859;28;20043;-72
2022/12/05 13:56:11;;;;;;;6.15;5.13;;;;;;;;;;5219102;28;20409;-72
2022/12/05 13:58:47;;;;;;;7.63;5.50;;;;;;;;;;5218624;28;20030;-72
2022/12/05 14:01:29;;;;;;;6.97;5.90;;;;;;;;;;5219841;28;20021;-71
2022/12/05 14:04:01;;;;;;;6.72;5.65;;;;;;;;;;5219821;28;20112;-72
2022/12/05 14:06:39;;;;;;;6.95;5.78;;;;;;;;;;5218860;28;20485;-73
2022/12/05 14:09:27;;;;;;;7.05;5.95;;;;;;;;;;5219877;28;20032;-73
2022/12/05 14:12:10;;;;;;;6.50;5.80;;;;;;;;;;5219406;28;20540;-72
2022/12/05 14:14:58;;;;;;;8.00;6.78;;;;;;;;;;5219441;28;20465;-73
2022/12/05 14:17:31;;;;;;;7.47;6.68;;;;;;;;;;5219233;28;20088;-72
2022/12/05 14:20:12;;;;;;;7.97;7.18;;;;;;;;;;5218392;28;20026;-72
2022/12/05 14:22:43;;;;;;;8.90;7.10;;;;;;;;;;5219524;28;20040;-73
2022/12/05 14:25:26;;;;;;;7.45;6.45;;;;;;;;;;5219658;28;20022;-73
2022/12/05 14:28:03;;;;;;;6.93;6.05;;;;;;;;;;5218681;28;20044;-73
2022/12/05 14:30:44;;;;;;;7.65;6.63;;;;;;;;;;5219353;28;20018;-73
2022/12/05 14:33:16;;;;;;;6.80;6.10;;;;;;;;;;5214145;28;20101;-72
2022/12/05 14:35:50;;;;;;;7.45;6.57;;;;;;;;;;5222010;28;20053;-73
2022/12/05 14:38:26;;;;;;;8.60;7.38;;;;;;;;;;5233934;28;20037;-72
2022/12/05 14:41:10;;;;;;;7.43;6.68;;;;;;;;;;5238975;28;20373;-72
2022/12/05 14:43:42;;;;;;;7.47;6.65;;;;;;;;;;5239272;28;20018;-73
2022/12/05 14:46:15;;;;;;;7.38;6.40;;;;;;;;;;5239658;28;20032;-72
2022/12/05 14:48:48;;;;;;;7.75;6.95;;;;;;;;;;5238632;28;20495;-73
2022/12/05 14:51:42;;;;;;;8.85;7.35;;;;;;;;;;5239746;28;20022;-73
2022/12/05 14:54:15;;;;;;;8.02;6.45;;;;;;;;;;5225811;28;20168;-72
2022/12/05 14:56:49;;;;;;;8.50;7.03;;;;;;;;;;5239489;28;20359;-70
2022/12/05 14:59:23;;;;;;;8.88;7.45;;;;;;;;;;5239581;28;20053;-69
2022/12/05 15:01:57;;;;;;;8.43;6.75;;;;;;;;;;5238619;28;20473;-69
2022/12/05 15:04:42;;;;;;;8.73;7.80;;;;;;;;;;5239835;28;20507;-69
2022/12/05 15:07:18;;;;;;;9.05;7.43;;;;;;;;;;5240758;28;20564;-70
2022/12/05 15:09:49;;;;;;;8.20;7.35;;;;;;;;;;5242500;28;20022;-69
2022/12/05 15:12:24;;;;;;;7.57;6.72;;;;;;;;;;5243244;28;20017;-70
2022/12/05 15:15:07;;;;;;;9.07;6.93;;;;;;;;;;5243410;28;20071;-70
2022/12/05 15:17:45;;;;;;;7.35;6.53;;;;;;;;;;5242602;28;20025;-69
2022/12/05 15:20:24;;;;;;;8.40;7.47;;;;;;;;;;5243738;28;20018;-69
2022/12/05 15:22:55;;;;;;;8.70;6.93;;;;;;;;;;5242935;28;20025;-69